Time;durP1;ratioP1;P1;durP2;ratioP2;P2;SDS_P1;SDS_P2;PMS_P1;PMS_P2;Temp;Humidity;BMP_temperature;BMP_pressure;BME280_temperature;BME280_humidity;BME280_pressure;Samples;Min_cycle;Max_cycle;Signal;HPM_P1;HPM_P2
2022/12/16 00:01:10;;;;;;;27.30;10.73;;;-1.70;94.80;;;;;;5034838;28;20037;-90
2022/12/16 00:03:37;;;;;;;29.38;10.73;;;-1.70;94.80;;;;;;5035822;28;20029;-90
2022/12/16 00:06:03;;;;;;;29.77;11.73;;;-1.80;94.80;;;;;;5036116;28;20026;-89
2022/12/16 00:08:34;;;;;;;30.13;12.07;;;-1.80;95.10;;;;;;5034229;28;20036;-90
2022/12/16 00:11:01;;;;;;;22.73;10.93;;;-1.70;95.20;;;;;;5033650;28;20025;-89
2022/12/16 00:13:28;;;;;;;26.13;11.63;;;-1.70;95.30;;;;;;5032579;28;20049;-89
2022/12/16 00:15:55;;;;;;;28.30;11.77;;;-1.80;95.30;;;;;;5032939;28;20034;-89
2022/12/16 00:18:21;;;;;;;26.33;11.52;;;-1.70;95.40;;;;;;5032893;28;20025;-89
2022/12/16 00:20:50;;;;;;;22.85;10.32;;;-1.70;95.20;;;;;;5033553;28;20056;-90
2022/12/16 00:23:15;;;;;;;22.50;10.45;;;-1.70;95.10;;;;;;5035254;28;20026;-88
2022/12/16 00:25:43;;;;;;;22.20;10.73;;;-1.80;94.90;;;;;;5033710;28;20440;-89
2022/12/16 00:28:13;;;;;;;30.92;12.27;;;-1.80;94.80;;;;;;5033134;28;20037;-88
2022/12/16 00:30:40;;;;;;;24.67;10.35;;;-2.30;94.80;;;;;;5032726;28;20326;-88
2022/12/16 00:33:05;;;;;;;29.17;12.30;;;-2.00;94.90;;;;;;5033323;28;20075;-88
2022/12/16 00:35:31;;;;;;;30.20;11.63;;;-2.10;94.90;;;;;;5032992;28;20459;-88
2022/12/16 00:37:58;;;;;;;30.98;10.95;;;-2.10;94.90;;;;;;5033859;28;20014;-88
2022/12/16 00:40:24;;;;;;;25.08;10.73;;;-2.10;94.90;;;;;;5033679;28;20411;-89
2022/12/16 00:42:51;;;;;;;27.27;11.63;;;-2.20;94.90;;;;;;5032890;28;20030;-89
2022/12/16 00:45:17;;;;;;;27.25;10.80;;;-2.20;95.00;;;;;;5032868;28;20486;-89
2022/12/16 00:47:42;;;;;;;26.08;11.48;;;-2.10;94.90;;;;;;5032767;28;20029;-90
2022/12/16 00:50:08;;;;;;;31.48;11.57;;;-1.90;94.90;;;;;;5032886;28;20068;-90
2022/12/16 00:52:35;;;;;;;27.65;11.65;;;-2.20;94.80;;;;;;5033877;28;20029;-89
2022/12/16 00:55:01;;;;;;;28.67;11.52;;;-2.30;94.70;;;;;;5032665;28;20420;-90
2022/12/16 00:57:27;;;;;;;31.58;11.35;;;-2.20;94.80;;;;;;5032887;28;20036;-88
2022/12/16 00:59:52;;;;;;;25.05;11.55;;;-2.30;94.80;;;;;;5034439;28;20025;-88
2022/12/16 01:02:18;;;;;;;27.10;11.27;;;-2.30;94.80;;;;;;5039623;28;20112;-89
2022/12/16 01:04:45;;;;;;;23.02;10.73;;;-2.30;94.70;;;;;;5037017;28;20140;-89
2022/12/16 01:07:11;;;;;;;26.73;11.23;;;-2.30;94.70;;;;;;5033577;28;20129;-90
2022/12/16 01:09:37;;;;;;;30.23;11.40;;;-2.40;94.50;;;;;;5034238;28;20086;-89
2022/12/16 01:12:03;;;;;;;26.35;10.98;;;-2.40;94.70;;;;;;5032792;28;20045;-88
2022/12/16 01:14:28;;;;;;;24.20;11.52;;;-2.40;94.60;;;;;;5032891;28;20108;-89
2022/12/16 01:16:54;;;;;;;28.52;12.70;;;-2.40;94.80;;;;;;5032632;28;20459;-89
2022/12/16 01:19:19;;;;;;;23.70;10.32;;;-2.30;94.70;;;;;;5031541;28;20036;-85
2022/12/16 01:21:45;;;;;;;30.35;12.48;;;-2.30;94.60;;;;;;5032585;28;20471;-86
2022/12/16 01:24:11;;;;;;;27.40;11.35;;;-2.40;94.40;;;;;;5032104;28;20100;-89
2022/12/16 01:26:38;;;;;;;25.02;10.45;;;-2.30;94.40;;;;;;5032968;28;20041;-90
2022/12/16 01:29:04;;;;;;;56.37;23.07;;;-2.50;94.60;;;;;;5032817;28;20026;-89
2022/12/16 01:31:31;;;;;;;296.42;114.25;;;-2.50;94.50;;;;;;5032329;28;20037;-89
2022/12/16 01:33:57;;;;;;;60.90;24.67;;;-2.50;94.60;;;;;;5031657;28;20034;-88
2022/12/16 01:36:22;;;;;;;28.38;12.45;;;-2.40;94.80;;;;;;5032446;28;20033;-89
2022/12/16 01:38:49;;;;;;;26.73;12.85;;;-2.40;95.00;;;;;;5032041;28;20086;-89
2022/12/16 01:41:19;;;;;;;29.00;12.27;;;-2.40;95.20;;;;;;5041880;28;20051;-85
2022/12/16 01:43:45;;;;;;;31.20;12.77;;;-2.40;95.20;;;;;;5033321;28;20115;-82
2022/12/16 01:46:13;;;;;;;28.92;12.25;;;-2.40;95.30;;;;;;5030492;28;20064;-82
2022/12/16 01:48:59;;;;;;;25.48;11.68;;;-2.30;95.40;;;;;;5030833;28;20506;-83
2022/12/16 01:51:42;;;;;;;34.63;13.48;;;-2.30;95.30;;;;;;5029453;28;20454;-84
2022/12/16 01:54:17;;;;;;;33.15;12.70;;;-2.30;94.80;;;;;;5031253;28;20030;-86
2022/12/16 01:56:48;;;;;;;26.58;11.57;;;-2.30;94.60;;;;;;5031778;28;20049;-84
2022/12/16 01:59:16;;;;;;;29.65;10.88;;;-2.40;94.30;;;;;;5030794;28;20471;-85
2022/12/16 02:01:42;;;;;;;23.27;10.00;;;-2.50;94.20;;;;;;5030873;28;20018;-84
2022/12/16 02:04:08;;;;;;;29.25;11.90;;;-2.50;94.10;;;;;;5029728;28;20099;-85
2022/12/16 02:06:33;;;;;;;24.77;11.63;;;-2.60;94.10;;;;;;5030144;28;20375;-85
2022/12/16 02:09:02;;;;;;;27.15;12.20;;;-2.60;94.20;;;;;;5032702;28;20026;-84
2022/12/16 02:11:44;;;;;;;24.92;10.75;;;-2.50;94.60;;;;;;5035473;28;20337;-86
2022/12/16 02:14:19;;;;;;;30.48;12.10;;;-2.50;94.70;;;;;;5034908;28;20482;-85
2022/12/16 02:16:59;;;;;;;26.42;11.52;;;-2.50;94.70;;;;;;5034806;28;20025;-84
2022/12/16 02:19:47;;;;;;;28.92;11.73;;;-2.50;94.70;;;;;;5033882;28;20133;-84
2022/12/16 02:22:48;;;;;;;25.48;11.48;;;-2.50;94.70;;;;;;5034769;28;20084;-82
2022/12/16 02:25:40;;;;;;;28.95;10.73;;;-2.50;94.70;;;;;;5034456;28;20061;-83
2022/12/16 02:28:39;;;;;;;27.55;12.10;;;-2.50;94.90;;;;;;5034628;28;20096;-86
2022/12/16 02:31:31;;;;;;;31.88;13.18;;;-2.40;95.30;;;;;;5034396;28;20025;-81
2022/12/16 02:34:15;;;;;;;31.60;12.50;;;-2.30;95.30;;;;;;5034879;28;20064;-82
2022/12/16 02:37:03;;;;;;;27.67;12.15;;;-2.30;95.30;;;;;;5019132;28;20037;-83
2022/12/16 02:39:38;;;;;;;32.03;12.98;;;-2.30;95.20;;;;;;5014398;28;20442;-83
2022/12/16 02:42:06;;;;;;;30.42;11.75;;;-2.30;94.80;;;;;;5014251;28;20456;-83
2022/12/16 02:44:47;;;;;;;24.95;11.15;;;-2.30;94.50;;;;;;5013303;28;20088;-83
2022/12/16 02:47:13;;;;;;;30.30;11.70;;;-2.40;94.20;;;;;;5013319;28;20459;-82
2022/12/16 02:49:51;;;;;;;27.35;11.23;;;-2.50;94.30;;;;;;5013639;28;20083;-83
2022/12/16 02:52:20;;;;;;;26.70;10.40;;;-2.60;94.20;;;;;;5014248;28;20022;-84
2022/12/16 02:54:47;;;;;;;34.38;12.68;;;-2.60;94.20;;;;;;5013164;28;20034;-82
2022/12/16 02:57:32;;;;;;;35.30;12.18;;;-2.60;94.10;;;;;;5013052;28;20026;-84
2022/12/16 03:00:07;;;;;;;32.05;13.02;;;-2.80;94.10;;;;;;5012871;28;20026;-84
2022/12/16 03:02:52;;;;;;;26.42;11.82;;;-2.80;94.20;;;;;;5012967;28;20515;-84
2022/12/16 03:05:31;;;;;;;28.23;11.07;;;-2.80;94.30;;;;;;5013024;28;20045;-82
2022/12/16 03:08:01;;;;;;;25.27;11.38;;;-2.90;94.10;;;;;;5013619;28;20345;-84
2022/12/16 03:10:31;;;;;;;32.35;12.80;;;-2.90;94.00;;;;;;5013848;28;20117;-84
2022/12/16 03:12:59;;;;;;;24.83;11.43;;;-2.90;94.20;;;;;;5012835;28;20042;-84
2022/12/16 03:15:28;;;;;;;28.60;11.65;;;-2.90;94.20;;;;;;5014057;28;20468;-83
2022/12/16 03:17:56;;;;;;;31.67;11.07;;;-3.00;94.00;;;;;;5013481;28;20033;-84
2022/12/16 03:20:30;;;;;;;26.80;10.75;;;-3.00;94.10;;;;;;5012666;28;20030;-84
2022/12/16 03:22:59;;;;;;;29.52;12.20;;;-3.10;94.10;;;;;;5014208;28;20022;-83
2022/12/16 03:25:27;;;;;;;26.42;10.98;;;-3.10;94.10;;;;;;5012486;28;20419;-84
2022/12/16 03:28:02;;;;;;;29.30;11.45;;;-3.20;94.10;;;;;;5012664;28;20439;-83
2022/12/16 03:30:35;;;;;;;28.63;11.15;;;-3.00;94.20;;;;;;5013347;28;20070;-84
2022/12/16 03:33:23;;;;;;;27.45;12.40;;;-3.20;94.20;;;;;;5013737;28;20482;-85
2022/12/16 03:35:55;;;;;;;27.25;11.35;;;-3.20;94.50;;;;;;5013884;28;20032;-84
2022/12/16 03:38:23;;;;;;;29.13;11.88;;;-3.20;94.10;;;;;;5012599;28;20022;-82
2022/12/16 03:40:50;;;;;;;26.23;9.32;;;-3.30;94.00;;;;;;5012860;28;20036;-84
2022/12/16 03:43:16;;;;;;;25.63;10.68;;;-3.30;94.20;;;;;;5012046;28;20045;-84
2022/12/16 03:45:44;;;;;;;29.70;12.52;;;-3.40;94.10;;;;;;5013236;28;20033;-83
2022/12/16 03:48:12;;;;;;;30.65;11.55;;;-3.40;94.10;;;;;;5014604;28;20377;-82
2022/12/16 03:50:39;;;;;;;33.63;13.25;;;-3.40;94.20;;;;;;5014293;28;20045;-82
2022/12/16 03:53:05;;;;;;;26.47;11.70;;;-3.40;94.00;;;;;;5013533;28;20135;-84
2022/12/16 03:55:31;;;;;;;30.48;13.18;;;-3.30;94.20;;;;;;5014050;28;20048;-83
2022/12/16 03:57:57;;;;;;;24.98;10.63;;;-3.20;94.20;;;;;;5013594;28;20431;-83
2022/12/16 04:00:24;;;;;;;27.25;11.55;;;-3.30;94.10;;;;;;5013385;28;20433;-83
2022/12/16 04:02:50;;;;;;;26.30;11.43;;;-3.20;94.00;;;;;;5011872;28;20022;-83
2022/12/16 04:05:16;;;;;;;27.63;11.77;;;-3.30;94.00;;;;;;5012903;28;20399;-84
2022/12/16 04:07:42;;;;;;;27.52;11.70;;;-3.30;93.90;;;;;;5013740;28;20022;-84
2022/12/16 04:10:08;;;;;;;24.88;10.90;;;-3.40;93.80;;;;;;5011808;28;20033;-83
2022/12/16 04:27:23;;;;;;;28.02;11.68;;;-3.50;93.70;;;;;;5012681;28;20029;-82
2022/12/16 04:29:17;;;;;;;32.70;12.10;;;-3.60;93.60;;;;;;5012652;28;20037;-83
2022/12/16 04:31:44;;;;;;;22.73;11.05;;;-3.60;93.70;;;;;;5012005;28;20022;-83
2022/12/16 04:34:25;;;;;;;26.40;10.93;;;-3.50;93.70;;;;;;5012473;28;20368;-82
